Time;durP1;ratioP1;P1;durP2;ratioP2;P2;SDS_P1;SDS_P2;PMS_P1;PMS_P2;Temp;Humidity;BMP_temperature;BMP_pressure;BME280_temperature;BME280_humidity;BME280_pressure;Samples;Min_cycle;Max_cycle;Signal;HPM_P1;HPM_P2
2022/03/23 00:02:16;;;;;;;191.35;87.95;;;;;;;11.33;100.00;100449.22;5093890;28;20024;-83
2022/03/23 00:04:42;;;;;;;190.07;86.78;;;;;;;11.18;100.00;100438.53;5098733;28;20028;-81
2022/03/23 00:07:09;;;;;;;195.63;92.28;;;;;;;11.15;100.00;100444.13;5096059;28;20091;-82
2022/03/23 00:09:35;;;;;;;229.35;100.82;;;;;;;11.18;100.00;100449.03;5094245;28;20028;-81
2022/03/23 00:12:00;;;;;;;212.77;95.80;;;;;;;11.18;100.00;100430.63;5096450;28;20547;-81
2022/03/23 00:14:26;;;;;;;212.45;98.18;;;;;;;11.25;100.00;100438.69;5091706;28;20032;-81
2022/03/23 00:16:52;;;;;;;227.07;102.15;;;;;;;11.29;100.00;100437.38;5096613;28;20028;-88
2022/03/23 00:19:17;;;;;;;207.20;95.85;;;;;;;11.27;100.00;100432.31;5106365;28;20060;-86
2022/03/23 00:21:43;;;;;;;205.18;91.88;;;;;;;11.34;100.00;100442.97;5105428;28;20089;-86
2022/03/23 00:24:09;;;;;;;208.65;91.38;;;;;;;11.29;100.00;100443.47;5112003;28;20031;-86
2022/03/23 00:26:35;;;;;;;200.63;94.03;;;;;;;11.24;100.00;100443.16;5107329;28;20032;-87
2022/03/23 00:29:01;;;;;;;227.18;100.82;;;;;;;11.20;100.00;100439.22;5110965;28;20028;-87
2022/03/23 00:31:26;;;;;;;223.07;102.18;;;;;;;11.23;100.00;100438.03;5108949;28;20028;-85
2022/03/23 00:33:54;;;;;;;211.25;94.85;;;;;;;11.21;100.00;100438.22;5116362;28;20035;-87
2022/03/23 00:36:20;;;;;;;186.15;92.35;;;;;;;11.14;100.00;100437.22;5121763;28;20066;-87
2022/03/23 00:38:47;;;;;;;204.05;94.45;;;;;;;11.13;100.00;100446.94;5118790;28;20037;-87
2022/03/23 00:41:13;;;;;;;186.48;86.28;;;;;;;10.96;100.00;100435.56;5109517;28;20020;-88
2022/03/23 00:43:39;;;;;;;193.45;87.88;;;;;;;10.97;100.00;100447.72;5108856;28;20026;-86
2022/03/23 00:46:05;;;;;;;181.18;85.03;;;;;;;10.84;100.00;100442.13;5104585;28;20039;-86
2022/03/23 00:48:31;;;;;;;194.98;88.22;;;;;;;10.84;100.00;100448.19;5105896;28;20371;-87
2022/03/23 00:50:58;;;;;;;187.98;88.68;;;;;;;10.77;100.00;100441.09;5105274;28;20048;-86
2022/03/23 00:53:23;;;;;;;188.88;90.82;;;;;;;10.73;100.00;100445.03;5106044;28;20023;-87
2022/03/23 00:55:50;;;;;;;190.35;86.40;;;;;;;10.77;100.00;100462.13;5100507;28;20540;-87
2022/03/23 00:58:19;;;;;;;202.07;92.18;;;;;;;10.67;100.00;100452.59;5096990;28;20034;-85
2022/03/23 01:00:45;;;;;;;206.63;92.75;;;;;;;10.68;100.00;100456.84;5094227;28;20020;-86
2022/03/23 01:03:12;;;;;;;194.82;88.57;;;;;;;10.67;100.00;100463.09;5084984;28;20032;-87
2022/03/23 01:05:37;;;;;;;205.00;94.10;;;;;;;10.59;100.00;100449.91;5106246;28;20460;-90
2022/03/23 01:08:04;;;;;;;215.90;96.32;;;;;;;10.57;100.00;100447.47;5109784;28;20542;-86
2022/03/23 01:10:32;;;;;;;231.77;99.57;;;;;;;10.63;100.00;100453.91;5109514;28;20028;-88
2022/03/23 01:12:57;;;;;;;233.50;101.90;;;;;;;10.65;100.00;100459.81;5106815;28;20063;-85
2022/03/23 01:15:24;;;;;;;228.02;98.13;;;;;;;10.55;100.00;100449.44;5106086;28;20031;-85
2022/03/23 01:17:50;;;;;;;225.10;99.63;;;;;;;10.63;100.00;100460.94;5104018;28;20031;-85
2022/03/23 01:20:19;;;;;;;219.85;99.63;;;;;;;10.75;100.00;100461.47;5103560;28;20040;-85
2022/03/23 01:22:45;;;;;;;232.18;100.63;;;;;;;10.86;100.00;100461.16;5108185;28;20542;-84
2022/03/23 01:25:11;;;;;;;244.10;105.93;;;;;;;10.92;100.00;100459.72;5108800;28;20421;-86
2022/03/23 01:27:38;;;;;;;226.68;101.25;;;;;;;10.91;100.00;100453.63;5100393;28;20059;-86
2022/03/23 01:30:06;;;;;;;224.60;100.53;;;;;;;10.92;100.00;100460.50;5107616;28;20096;-87
2022/03/23 01:32:33;;;;;;;208.77;95.20;;;;;;;10.79;100.00;100455.72;5105835;28;20427;-85
2022/03/23 01:34:59;;;;;;;206.82;94.78;;;;;;;10.75;100.00;100458.84;5108289;28;20504;-86
2022/03/23 01:37:25;;;;;;;227.15;98.03;;;;;;;10.68;100.00;100448.13;5102278;28;20144;-88
2022/03/23 01:39:51;;;;;;;232.52;105.05;;;;;;;10.65;100.00;100449.31;5110285;28;20016;-87
2022/03/23 01:42:17;;;;;;;251.45;105.82;;;;;;;10.72;100.00;100446.88;5105964;28;20473;-88
2022/03/23 01:44:42;;;;;;;252.70;108.43;;;;;;;10.65;100.00;100444.06;5100275;28;20043;-85
2022/03/23 01:47:13;;;;;;;253.27;108.38;;;;;;;10.71;100.00;100445.22;5107125;28;20042;-88
2022/03/23 01:49:41;;;;;;;249.32;108.32;;;;;;;10.75;100.00;100443.06;5106843;28;20073;-87
2022/03/23 01:52:10;;;;;;;236.85;102.53;;;;;;;10.75;100.00;100448.31;5104283;28;20603;-85
2022/03/23 01:54:37;;;;;;;236.05;104.82;;;;;;;10.71;100.00;100437.34;5103311;28;20040;-84
2022/03/23 01:57:05;;;;;;;235.88;100.63;;;;;;;10.67;100.00;100436.84;5105468;28;20007;-86
2022/03/23 01:59:32;;;;;;;233.70;102.07;;;;;;;10.59;100.00;100443.88;5104552;28;20614;-88
2022/03/23 02:01:58;;;;;;;248.48;105.63;;;;;;;10.52;100.00;100436.63;5112777;28;20032;-87
2022/03/23 02:04:24;;;;;;;237.00;106.18;;;;;;;10.53;100.00;100432.19;5103096;28;20024;-87
2022/03/23 02:06:50;;;;;;;238.73;103.15;;;;;;;10.47;100.00;100424.97;5105175;28;20077;-86
2022/03/23 02:09:17;;;;;;;254.25;107.15;;;;;;;10.51;100.00;100434.97;5103315;28;20031;-86
2022/03/23 02:11:43;;;;;;;260.65;109.15;;;;;;;10.44;100.00;100420.84;5103594;28;20447;-88
2022/03/23 02:14:10;;;;;;;246.52;106.15;;;;;;;10.45;100.00;100421.69;5091512;28;20024;-86
2022/03/23 02:16:43;;;;;;;250.18;107.28;;;;;;;10.49;100.00;100439.56;5103567;28;20032;-85
2022/03/23 02:19:10;;;;;;;235.07;103.32;;;;;;;10.37;100.00;100419.81;5103315;28;20525;-85
2022/03/23 02:21:37;;;;;;;230.55;99.90;;;;;;;10.30;100.00;100422.25;5104219;28;20026;-85
2022/03/23 02:24:06;;;;;;;233.52;101.20;;;;;;;10.20;100.00;100418.91;5104675;28;20050;-86
2022/03/23 02:26:32;;;;;;;221.93;97.15;;;;;;;10.11;100.00;100425.91;5097371;28;20070;-84
2022/03/23 02:29:00;;;;;;;217.23;97.65;;;;;;;10.03;100.00;100429.34;5100301;28;20110;-86
2022/03/23 02:31:26;;;;;;;225.05;102.15;;;;;;;9.88;100.00;100415.16;5098779;28;20032;-86
2022/03/23 02:33:52;;;;;;;234.95;100.95;;;;;;;9.80;100.00;100415.94;5099279;28;20039;-84
2022/03/23 02:36:18;;;;;;;252.50;106.28;;;;;;;9.86;100.00;100418.78;5105199;28;20115;-84
2022/03/23 02:38:44;;;;;;;250.57;103.43;;;;;;;9.99;100.00;100425.38;5099497;28;20028;-84
2022/03/23 02:41:10;;;;;;;249.73;104.03;;;;;;;10.04;100.00;100424.91;5097378;28;20049;-83
2022/03/23 02:43:36;;;;;;;237.30;101.75;;;;;;;9.98;100.00;100408.00;5078639;28;20024;-83
2022/03/23 02:46:02;;;;;;;253.25;105.25;;;;;;;9.85;100.00;100395.31;5106443;28;20505;-84
2022/03/23 02:48:28;;;;;;;241.20;101.85;;;;;;;9.96;100.00;100421.28;5102435;28;20054;-85
2022/03/23 02:50:54;;;;;;;238.10;102.45;;;;;;;9.99;100.00;100420.13;5101870;28;20127;-84
2022/03/23 03:02:21;;;;;;;237.90;98.93;;;;;;;10.14;100.00;100423.81;5094774;28;20070;-85
2022/03/23 03:04:50;;;;;;;245.50;101.68;;;;;;;10.20;100.00;100429.41;5096042;28;20075;-84
2022/03/23 03:07:18;;;;;;;242.27;101.35;;;;;;;10.13;100.00;100424.78;5095164;28;20028;-83
2022/03/23 03:09:44;;;;;;;242.23;102.45;;;;;;;10.14;100.00;100436.94;5096367;28;20027;-85
2022/03/23 03:12:11;;;;;;;243.70;101.70;;;;;;;10.07;100.00;100414.94;5103246;28;20039;-84
2022/03/23 03:14:40;;;;;;;225.93;97.93;;;;;;;10.12;100.00;100438.91;5099771;28;20024;-83
2022/03/23 03:17:07;;;;;;;214.77;93.82;;;;;;;10.13;100.00;100426.63;5097558;28;20384;-85
2022/03/23 03:19:33;;;;;;;212.50;92.60;;;;;;;10.06;100.00;100421.16;5101826;28;20028;-84
2022/03/23 03:22:05;;;;;;;216.35;91.82;;;;;;;10.00;100.00;100411.28;5101337;28;20056;-84
2022/03/23 03:24:35;;;;;;;202.88;88.65;;;;;;;9.90;100.00;100407.97;5093294;28;20029;-82
2022/03/23 03:27:01;;;;;;;179.70;80.90;;;;;;;9.86;100.00;100421.41;5095572;28;20059;-84
2022/03/23 03:29:31;;;;;;;221.75;92.30;;;;;;;9.81;100.00;100415.78;5107711;28;20043;-83
2022/03/23 03:32:01;;;;;;;221.05;97.22;;;;;;;9.78;100.00;100416.09;5109492;28;20036;-86
2022/03/23 03:34:27;;;;;;;232.07;99.03;;;;;;;9.71;100.00;100396.72;5102416;28;20366;-84
2022/03/23 03:36:52;;;;;;;241.38;99.45;;;;;;;9.72;100.00;100417.53;5100767;28;20079;-84
2022/03/23 03:39:18;;;;;;;215.52;91.80;;;;;;;9.69;100.00;100406.53;5098488;28;20057;-85
2022/03/23 03:41:44;;;;;;;193.57;82.95;;;;;;;9.73;100.00;100418.34;5099048;28;20016;-86
2022/03/23 03:44:11;;;;;;;191.95;82.93;;;;;;;9.81;100.00;100418.41;5105337;28;20118;-85
2022/03/23 03:46:37;;;;;;;178.98;77.07;;;;;;;9.89;100.00;100422.06;5099257;28;20030;-85
2022/03/23 03:49:03;;;;;;;170.75;76.10;;;;;;;9.91;100.00;100431.41;5100684;28;20051;-83
2022/03/23 03:51:29;;;;;;;181.90;77.97;;;;;;;9.78;100.00;100418.72;5104202;28;20489;-83
2022/03/23 03:53:56;;;;;;;170.70;76.63;;;;;;;9.71;100.00;100413.25;5104030;28;20054;-84
2022/03/23 03:56:21;;;;;;;165.35;75.47;;;;;;;9.71;100.00;100425.56;5105192;28;20466;-84
2022/03/23 03:58:48;;;;;;;164.52;72.45;;;;;;;9.59;100.00;100427.63;5106499;28;20089;-86
2022/03/23 04:01:14;;;;;;;144.65;67.15;;;;;;;9.58;100.00;100425.97;5084785;28;20020;-86
2022/03/23 04:03:40;;;;;;;149.75;68.95;;;;;;;9.41;100.00;100431.09;5097617;28;20547;-86
2022/03/23 04:06:07;;;;;;;155.57;70.13;;;;;;;9.35;100.00;100441.34;5105600;28;20035;-83
2022/03/23 04:08:32;;;;;;;157.65;72.80;;;;;;;9.17;100.00;100434.34;5081690;28;20465;-84
2022/03/23 04:10:58;;;;;;;172.52;74.72;;;;;;;9.13;100.00;100438.22;5101486;28;20039;-84
2022/03/23 04:13:24;;;;;;;179.45;79.35;;;;;;;9.10;100.00;100433.31;5105203;28;20062;-83
2022/03/23 04:15:50;;;;;;;190.38;85.18;;;;;;;9.04;100.00;100445.19;5107748;28;20043;-85
2022/03/23 04:18:16;;;;;;;203.27;87.57;;;;;;;8.90;100.00;100428.22;5104409;28;20035;-84
2022/03/23 04:20:42;;;;;;;205.80;87.10;;;;;;;8.95;100.00;100449.53;5097385;28;20028;-85
2022/03/23 04:23:07;;;;;;;188.20;81.50;;;;;;;8.88;100.00;100445.88;5084894;28;20042;-85
2022/03/23 04:25:33;;;;;;;175.05;80.50;;;;;;;8.79;100.00;100442.34;5098376;28;20106;-84
2022/03/23 04:27:59;;;;;;;188.27;84.35;;;;;;;8.76;100.00;100450.50;5107383;28;20031;-85
2022/03/23 04:30:28;;;;;;;199.50;85.22;;;;;;;8.68;100.00;100450.38;5097125;28;20474;-83
2022/03/23 04:32:54;;;;;;;199.68;84.00;;;;;;;8.57;100.00;100438.34;5101387;28;20035;-84
2022/03/23 04:35:21;;;;;;;194.48;85.15;;;;;;;8.50;100.00;100442.53;5103594;28;20122;-83
2022/03/23 04:37:48;;;;;;;180.80;80.10;;;;;;;8.55;100.00;100456.81;5100707;28;20031;-84
2022/03/23 04:40:15;;;;;;;188.35;80.60;;;;;;;8.51;100.00;100452.00;5102918;28;20028;-84
2022/03/23 04:42:42;;;;;;;200.40;85.03;;;;;;;8.40;100.00;100453.00;5100793;28;20107;-84
2022/03/23 04:45:09;;;;;;;196.55;83.25;;;;;;;8.38;100.00;100450.50;5102618;28;20036;-83
2022/03/23 04:47:36;;;;;;;189.07;82.20;;;;;;;8.31;100.00;100449.47;5102019;28;20053;-84
2022/03/23 04:50:05;;;;;;;199.88;83.35;;;;;;;8.35;100.00;100457.81;5105708;28;20040;-84
2022/03/23 04:52:31;;;;;;;208.75;86.10;;;;;;;8.36;100.00;100455.06;5089972;28;20032;-86
2022/03/23 04:54:57;;;;;;;200.23;87.63;;;;;;;8.42;100.00;100475.41;5104873;28;20393;-85
2022/03/23 04:57:23;;;;;;;202.75;87.10;;;;;;;8.33;100.00;100447.53;5108321;28;20028;-84
2022/03/23 04:59:50;;;;;;;210.80;85.22;;;;;;;8.38;100.00;100465.41;5105975;28;20036;-84
2022/03/23 05:02:16;;;;;;;202.82;86.18;;;;;;;8.34;100.00;100458.78;5104265;28;20088;-85
2022/03/23 05:04:41;;;;;;;193.23;83.32;;;;;;;8.27;100.00;100445.50;5107676;28;20122;-84
2022/03/23 05:07:07;;;;;;;206.93;86.13;;;;;;;8.43;100.00;100461.38;5100349;28;20032;-84
2022/03/23 05:09:32;;;;;;;220.23;89.80;;;;;;;8.34;100.00;100462.25;5105240;28;20031;-84
2022/03/23 05:11:58;;;;;;;224.77;92.50;;;;;;;8.36;100.00;100467.34;5107911;28;20062;-83
2022/03/23 05:14:23;;;;;;;237.75;96.50;;;;;;;8.25;100.00;100457.88;5108597;28;21085;-84
2022/03/23 05:16:49;;;;;;;229.38;95.32;;;;;;;8.26;100.00;100455.13;5103512;28;20520;-83
2022/03/23 05:19:15;;;;;;;232.35;95.82;;;;;;;8.36;100.00;100462.13;5096164;28;20149;-84
2022/03/23 05:21:41;;;;;;;230.80;95.10;;;;;;;8.47;100.00;100464.53;5081825;28;20016;-85
2022/03/23 05:24:06;;;;;;;201.57;83.93;;;;;;;8.52;100.00;100462.31;5108013;28;20034;-83
2022/03/23 05:26:32;;;;;;;233.70;91.72;;;;;;;8.47;100.00;100459.28;5107207;28;20031;-86
2022/03/23 05:28:57;;;;;;;240.88;94.63;;;;;;;8.65;100.00;100467.22;5108049;28;20034;-86
2022/03/23 05:31:23;;;;;;;260.33;104.90;;;;;;;8.78;100.00;100471.28;5104441;28;20039;-84
2022/03/23 05:33:49;;;;;;;257.33;103.70;;;;;;;8.83;100.00;100476.88;5102234;28;20081;-85
2022/03/23 05:36:14;;;;;;;257.20;104.47;;;;;;;8.79;100.00;100468.53;5108585;28;20041;-86
2022/03/23 05:38:40;;;;;;;274.42;106.03;;;;;;;8.76;100.00;100467.97;5102301;28;20054;-85
2022/03/23 05:41:06;;;;;;;260.13;108.93;;;;;;;8.85;100.00;100478.41;5107507;27;20042;-85
2022/03/23 05:43:32;;;;;;;335.67;132.60;;;;;;;8.82;100.00;100475.25;5102022;28;20028;-85
2022/03/23 05:45:58;;;;;;;291.55;120.22;;;;;;;8.84;100.00;100473.28;5098407;28;20035;-84
2022/03/23 05:48:23;;;;;;;307.98;119.30;;;;;;;8.78;100.00;100476.50;5103374;28;20389;-86
2022/03/23 05:50:49;;;;;;;297.45;119.45;;;;;;;8.74;100.00;100469.94;5105945;28;20127;-85
2022/03/23 05:53:15;;;;;;;317.15;123.38;;;;;;;8.85;100.00;100485.44;5105204;28;20071;-86
2022/03/23 05:55:41;;;;;;;290.20;117.35;;;;;;;8.78;100.00;100476.50;5102107;28;20028;-83
2022/03/23 05:58:09;;;;;;;262.13;106.20;;;;;;;8.69;100.00;100472.97;5102843;28;20038;-84
2022/03/23 06:00:34;;;;;;;253.73;102.20;;;;;;;8.76;100.00;100488.94;5106237;28;20027;-84
2022/03/23 06:03:00;;;;;;;257.67;104.50;;;;;;;8.84;100.00;100491.63;5103899;28;20024;-82
2022/03/23 06:05:26;;;;;;;266.55;108.68;;;;;;;8.92;100.00;100504.81;5089437;28;20452;-84
2022/03/23 06:07:51;;;;;;;252.43;102.47;;;;;;;8.94;100.00;100497.63;5096163;28;20089;-83
2022/03/23 06:10:17;;;;;;;232.65;97.93;;;;;;;8.88;100.00;100487.75;5104026;28;20119;-82
2022/03/23 06:12:42;;;;;;;229.15;93.38;;;;;;;8.86;100.00;100502.81;5108167;28;20027;-82
2022/03/23 06:15:10;;;;;;;231.15;98.15;;;;;;;8.79;100.00;100486.00;5099319;28;20035;-83
2022/03/23 06:17:37;;;;;;;228.18;94.88;;;;;;;8.86;100.00;100500.19;5100489;28;20052;-84
2022/03/23 06:20:04;;;;;;;242.52;97.85;;;;;;;8.95;100.00;100498.47;5080666;28;20130;-82
2022/03/23 06:22:29;;;;;;;328.92;129.52;;;;;;;8.94;100.00;100492.41;5102131;28;20100;-85
2022/03/23 06:24:55;;;;;;;331.65;132.75;;;;;;;9.16;100.00;100486.91;5106442;28;20032;-82
2022/03/23 06:27:21;;;;;;;324.08;126.40;;;;;;;9.32;100.00;100483.59;5101848;28;20107;-82
2022/03/23 06:29:46;;;;;;;309.83;123.05;;;;;;;9.31;100.00;100488.00;5106350;28;20031;-89
2022/03/23 06:32:13;;;;;;;280.77;118.22;;;;;;;9.30;100.00;100491.59;5108769;28;20020;-87
2022/03/23 06:34:39;;;;;;;302.08;121.30;;;;;;;9.23;100.00;100475.63;5090291;28;20039;-87
2022/03/23 06:37:04;;;;;;;285.83;120.78;;;;;;;9.49;100.00;100484.53;5108297;28;20026;-82
2022/03/23 06:39:31;;;;;;;289.48;122.32;;;;;;;9.51;100.00;100487.84;5103716;28;20020;-82
2022/03/23 06:41:57;;;;;;;293.98;122.35;;;;;;;9.80;100.00;100492.00;5089376;28;20474;-84
2022/03/23 06:44:23;;;;;;;311.40;126.75;;;;;;;9.77;100.00;100480.00;5101436;28;20028;-83
2022/03/23 06:46:48;;;;;;;309.98;129.57;;;;;;;9.98;100.00;100478.81;5100836;28;20076;-84
2022/03/23 06:49:16;;;;;;;344.38;138.73;;;;;;;10.18;100.00;100499.59;5102901;28;20046;-85
2022/03/23 06:51:42;;;;;;;325.75;134.60;;;;;;;10.33;100.00;100495.41;5103924;28;20034;-84
2022/03/23 06:54:07;;;;;;;337.15;139.40;;;;;;;10.61;100.00;100504.91;5101552;28;20031;-85
2022/03/23 06:56:33;;;;;;;335.40;139.93;;;;;;;10.74;100.00;100504.47;5111878;28;20031;-87
2022/03/23 06:58:59;;;;;;;330.23;138.02;;;;;;;10.74;100.00;100504.47;5094226;28;20401;-86
2022/03/23 07:01:24;;;;;;;324.50;137.52;;;;;;;10.65;100.00;100480.81;5104385;28;20040;-88
2022/03/23 07:03:50;;;;;;;309.70;132.48;;;;;;;10.87;100.00;100496.97;5101579;28;20023;-86
2022/03/23 07:06:18;;;;;;;307.10;132.35;;;;;;;10.89;100.00;100491.53;5098016;28;20496;-87
2022/03/23 07:11:29;;;;;;;302.38;131.70;;;;;;;11.11;100.00;100503.25;5105593;28;20046;-87
2022/03/23 07:13:55;;;;;;;287.95;126.38;;;;;;;11.08;100.00;100498.31;5106319;28;20032;-86
2022/03/23 07:16:21;;;;;;;282.77;121.22;;;;;;;11.12;100.00;100481.25;5101291;28;20492;-88
2022/03/23 07:18:46;;;;;;;286.33;122.63;;;;;;;11.11;100.00;100487.47;5079136;28;20030;-85
2022/03/23 07:21:12;;;;;;;281.17;121.25;;;;;;;11.14;100.00;100503.75;5098734;28;20094;-84
2022/03/23 07:23:38;;;;;;;267.77;118.45;;;;;;;11.16;100.00;100495.69;5104901;28;20678;-86
2022/03/23 07:26:04;;;;;;;273.15;120.10;;;;;;;11.27;100.00;100499.81;5084010;28;20496;-83
2022/03/23 07:28:30;;;;;;;265.60;118.28;;;;;;;11.35;100.00;100494.56;5099919;28;20052;-84
2022/03/23 07:30:56;;;;;;;269.90;118.72;;;;;;;11.39;100.00;100508.19;5099502;28;20036;-88
2022/03/23 07:33:22;;;;;;;265.95;117.22;;;;;;;11.52;100.00;100524.31;5091095;28;20020;-86
2022/03/23 07:35:48;;;;;;;261.67;119.53;;;;;;;11.67;100.00;100519.22;5104948;28;20529;-84
2022/03/23 07:38:14;;;;;;;260.05;114.72;;;;;;;11.86;100.00;100515.44;5111445;28;20481;-87
2022/03/23 07:40:41;;;;;;;242.73;113.85;;;;;;;11.94;100.00;100500.59;5094796;28;20043;-87
2022/03/23 07:43:07;;;;;;;233.38;110.65;;;;;;;12.06;100.00;100503.75;5114476;28;20047;-84
2022/03/23 07:45:33;;;;;;;229.85;108.80;;;;;;;12.42;100.00;100524.38;5097923;28;20389;-85
2022/03/23 07:48:00;;;;;;;232.52;110.90;;;;;;;12.49;100.00;100519.25;5114560;28;20047;-87
2022/03/23 07:50:26;;;;;;;224.65;106.97;;;;;;;12.62;100.00;100526.59;5098279;28;20093;-86
2022/03/23 07:52:52;;;;;;;196.30;94.00;;;;;;;12.57;100.00;100506.03;5110926;28;20055;-85
2022/03/23 07:55:18;;;;;;;174.32;89.68;;;;;;;12.79;100.00;100540.53;5108205;28;20032;-85
2022/03/23 07:57:45;;;;;;;174.85;89.82;;;;;;;12.73;100.00;100534.16;5108771;28;20032;-85
2022/03/23 08:00:11;;;;;;;199.07;99.88;;;;;;;12.47;100.00;100500.16;5101985;28;20061;-83
2022/03/23 08:02:37;;;;;;;198.77;98.07;;;;;;;12.42;100.00;100506.78;5085078;28;20020;-85
2022/03/23 08:05:09;;;;;;;187.05;93.57;;;;;;;12.36;100.00;100504.81;5077094;28;20031;-84
2022/03/23 08:07:35;;;;;;;165.35;85.32;;;;;;;12.45;100.00;100517.97;5114094;28;20550;-85
2022/03/23 08:10:01;;;;;;;165.48;86.50;;;;;;;12.41;100.00;100528.84;5088417;28;20032;-87
2022/03/23 08:12:26;;;;;;;158.60;83.70;;;;;;;12.56;100.00;100551.81;5084360;28;20085;-82
2022/03/23 08:14:53;;;;;;;159.73;84.43;;;;;;;12.36;100.00;100517.97;5089384;28;20031;-83
2022/03/23 08:17:19;;;;;;;151.35;80.40;;;;;;;12.45;100.00;100531.13;5069913;28;20051;-84
2022/03/23 08:20:32;;;;;;;157.65;84.88;;;;;;;12.52;100.00;100555.78;5107599;28;20028;-86
2022/03/23 08:22:30;;;;;;;161.75;84.82;;;;;;;12.42;100.00;100541.00;5105444;28;20024;-83
2022/03/23 08:24:56;;;;;;;159.65;84.18;;;;;;;12.47;100.00;100539.66;5102562;28;20032;-86
2022/03/23 08:27:21;;;;;;;156.60;80.82;;;;;;;12.56;100.00;100557.06;5105239;28;20035;-86
2022/03/23 08:29:47;;;;;;;153.15;82.40;;;;;;;12.52;100.00;100555.78;5106487;28;20027;-82
2022/03/23 08:32:14;;;;;;;153.80;81.70;;;;;;;12.61;100.00;100552.13;5104420;28;20055;-82
2022/03/23 08:34:40;;;;;;;167.00;84.20;;;;;;;12.54;100.00;100533.56;5107863;28;20105;-82
2022/03/23 08:37:09;;;;;;;159.18;81.25;;;;;;;12.72;100.00;100548.31;5110024;28;20039;-81
2022/03/23 08:39:34;;;;;;;146.95;80.25;;;;;;;12.78;100.00;100537.06;5085070;28;20173;-81
2022/03/23 08:42:00;;;;;;;156.48;82.85;;;;;;;12.83;100.00;100533.94;5088665;28;20520;-82
2022/03/23 08:44:28;;;;;;;156.40;82.20;;;;;;;13.26;100.00;100558.06;5103580;28;20023;-83
2022/03/23 08:46:54;;;;;;;160.80;85.45;;;;;;;13.33;100.00;100552.09;5104586;28;20038;-82
2022/03/23 08:49:22;;;;;;;154.00;82.50;;;;;;;13.29;100.00;100539.25;5111496;28;20048;-83
2022/03/23 08:51:48;;;;;;;163.80;86.55;;;;;;;13.31;100.00;100541.72;5106889;28;20027;-82
2022/03/23 08:54:14;;;;;;;167.95;87.40;;;;;;;13.41;100.00;100565.22;5109077;28;20073;-82
2022/03/23 08:56:39;;;;;;;165.35;86.50;;;;;;;13.30;100.00;100558.56;5109711;28;20036;-82
2022/03/23 08:59:05;;;;;;;158.05;83.75;;;;;;;13.35;100.00;100556.19;5112607;28;20036;-83
2022/03/23 09:01:32;;;;;;;160.05;87.28;;;;;;;13.38;100.00;100566.41;5107544;28;20023;-83
2022/03/23 09:04:03;;;;;;;165.23;86.70;;;;;;;13.49;100.00;100557.28;5108415;28;20521;-81
2022/03/23 09:06:29;;;;;;;155.93;80.70;;;;;;;13.56;100.00;100550.31;5095910;28;20032;-80
2022/03/23 09:08:55;;;;;;;149.95;79.15;;;;;;;14.02;100.00;100566.25;5109861;28;20039;-80
2022/03/23 09:11:22;;;;;;;153.82;82.03;;;;;;;14.39;100.00;100568.03;5117265;28;20051;-81
2022/03/23 09:13:48;;;;;;;147.13;80.13;;;;;;;14.76;100.00;100562.03;5116790;27;20485;-79
2022/03/23 09:16:15;;;;;;;141.52;78.63;;;;;;;14.92;100.00;100540.66;5106840;27;20032;-81
2022/03/23 09:18:40;;;;;;;150.23;80.68;;;;;;;15.41;100.00;100570.06;5095312;28;20390;-80
2022/03/23 09:21:06;;;;;;;133.10;74.75;;;;;;;15.78;100.00;100568.16;5104517;28;20019;-80
2022/03/23 09:23:32;;;;;;;144.98;78.45;;;;;;;16.04;100.00;100553.50;5102034;27;20390;-81
2022/03/23 09:25:58;;;;;;;138.82;75.85;;;;;;;16.26;100.00;100543.66;5096374;28;20028;-81
2022/03/23 09:28:23;;;;;;;131.02;73.68;;;;;;;16.41;100.00;100542.75;5085217;28;20070;-81
2022/03/23 09:30:49;;;;;;;127.72;72.32;;;;;;;16.74;98.99;100551.84;5094230;28;20035;-81
2022/03/23 09:33:15;;;;;;;132.93;73.97;;;;;;;16.83;97.81;100562.09;5102149;28;20024;-82
2022/03/23 09:35:41;;;;;;;120.65;71.05;;;;;;;16.94;97.00;100552.75;5097540;28;20028;-80
2022/03/23 09:38:08;;;;;;;131.65;71.97;;;;;;;17.22;96.49;100577.53;5096023;28;20460;-80
2022/03/23 09:40:34;;;;;;;123.57;71.25;;;;;;;17.37;95.45;100572.84;5096410;28;20032;-80
2022/03/23 09:43:02;;;;;;;129.73;73.75;;;;;;;17.49;93.68;100586.38;5098585;28;20115;-79
2022/03/23 09:48:01;;;;;;;125.85;71.13;;;;;;;17.91;91.62;100572.09;5100361;28;20051;-80
2022/03/23 09:50:29;;;;;;;115.00;68.72;;;;;;;18.20;90.77;100576.19;5095865;28;20044;-81
2022/03/23 09:52:56;;;;;;;124.18;72.70;;;;;;;17.96;89.11;100574.94;5105966;28;20032;-81
2022/03/23 09:55:23;;;;;;;119.07;69.75;;;;;;;18.15;89.15;100572.50;5104451;28;20035;-81
2022/03/23 09:57:55;;;;;;;122.38;71.53;;;;;;;18.28;88.69;100575.16;5099431;28;20493;-80
2022/03/23 10:00:22;;;;;;;119.03;68.32;;;;;;;17.95;87.64;100574.13;5075521;28;20039;-81
2022/03/23 10:03:12;;;;;;;126.20;71.95;;;;;;;18.16;87.19;100574.94;5105466;28;20477;-81
2022/03/23 10:06:42;;;;;;;117.00;68.75;;;;;;;18.29;87.88;100576.78;5108255;28;20126;-81
2022/03/23 10:09:29;;;;;;;126.38;74.13;;;;;;;18.04;85.97;100571.28;5103969;28;20048;-81
2022/03/23 10:12:43;;;;;;;114.68;66.22;;;;;;;18.07;86.31;100578.84;5108708;27;20054;-81
2022/03/23 10:16:02;;;;;;;110.88;66.50;;;;;;;17.89;85.68;100569.63;5096279;28;20036;-81
2022/03/23 10:18:48;;;;;;;112.90;66.75;;;;;;;17.43;83.39;100557.97;5033156;28;20030;-81
2022/03/23 10:21:14;;;;;;;105.18;62.10;;;;;;;17.51;83.94;100567.56;5017029;28;20044;-81
2022/03/23 10:23:59;;;;;;;110.57;64.97;;;;;;;17.43;82.45;100542.03;5033052;28;20045;-81
2022/03/23 10:26:26;;;;;;;109.85;60.83;;;;;;;17.65;84.08;100569.22;5058927;28;20035;-81
2022/03/23 10:28:52;;;;;;;104.43;61.25;;;;;;;17.76;84.19;100575.75;5100839;27;20040;-81
2022/03/23 10:31:22;;;;;;;105.20;64.20;;;;;;;17.88;84.41;100572.47;5079342;28;20067;-81
2022/03/23 10:34:07;;;;;;;108.88;66.75;;;;;;;17.93;83.02;100572.69;5114555;28;20107;-82
2022/03/23 10:36:57;;;;;;;111.93;66.18;;;;;;;18.23;83.47;100580.25;5108785;28;20107;-80
2022/03/23 10:39:32;;;;;;;122.15;71.03;;;;;;;18.35;83.23;100581.25;5099192;28;20053;-80
2022/03/23 10:42:18;;;;;;;124.90;73.05;;;;;;;18.65;82.83;100561.31;5100772;28;20482;-81
2022/03/23 10:44:47;;;;;;;125.32;74.50;;;;;;;18.82;80.89;100559.81;5108412;28;20032;-81
2022/03/23 10:47:28;;;;;;;120.07;73.32;;;;;;;18.96;80.30;100557.91;5097888;28;20061;-82
2022/03/23 10:49:55;;;;;;;122.70;74.30;;;;;;;18.93;80.17;100565.50;5086400;28;20051;-81
2022/03/23 10:52:21;;;;;;;122.72;75.78;;;;;;;18.92;80.67;100556.72;5104630;28;20400;-82
2022/03/23 10:54:58;;;;;;;138.63;82.30;;;;;;;18.49;81.17;100542.16;5090458;28;20031;-81
2022/03/23 10:57:56;;;;;;;124.60;76.95;;;;;;;18.42;83.16;100574.06;5099065;28;20032;-81
2022/03/23 11:00:29;;;;;;;127.38;76.20;;;;;;;18.24;85.26;100579.22;5100149;28;20024;-81
2022/03/23 11:02:56;;;;;;;114.72;70.75;;;;;;;17.94;85.51;100556.53;5095860;28;20505;-84
2022/03/23 11:05:36;;;;;;;119.28;72.88;;;;;;;18.06;84.81;100570.03;5095209;28;20061;-82
2022/03/23 11:08:27;;;;;;;118.93;73.40;;;;;;;17.99;84.01;100575.34;5099282;28;20032;-83
2022/03/23 11:16:51;;;;;;;114.25;70.63;;;;;;;18.20;84.27;100568.22;5095839;28;20085;-82
2022/03/23 11:19:23;;;;;;;110.43;65.93;;;;;;;18.30;83.88;100572.25;5094358;28;20481;-82